Time;durP1;ratioP1;P1;durP2;ratioP2;P2;SDS_P1;SDS_P2;PMS_P1;PMS_P2;Temp;Humidity;BMP_temperature;BMP_pressure;BME280_temperature;BME280_humidity;BME280_pressure;Samples;Min_cycle;Max_cycle;Signal;HPM_P1;HPM_P2
2023/03/18 00:00:26;;;;;;;8.10;3.00;;;;;;;;;;4971525;28;20109;-64
2023/03/18 00:02:51;;;;;;;7.57;2.90;;;;;;;;;;4972875;28;20066;-66
2023/03/18 00:05:18;;;;;;;7.53;2.75;;;;;;;;;;4973103;28;20097;-65
2023/03/18 00:07:44;;;;;;;7.90;3.05;;;;;;;;;;4972344;28;20033;-66
2023/03/18 00:10:10;;;;;;;9.38;2.97;;;;;;;;;;4973654;28;20034;-66
2023/03/18 00:12:37;;;;;;;7.88;3.20;;;;;;;;;;4972169;28;20093;-66
2023/03/18 00:15:03;;;;;;;9.63;2.85;;;;;;;;;;4973032;28;20031;-66
2023/03/18 00:17:28;;;;;;;8.95;2.72;;;;;;;;;;4972394;28;20034;-66
2023/03/18 00:19:53;;;;;;;10.25;3.40;;;;;;;;;;4973337;28;20026;-64
2023/03/18 00:22:19;;;;;;;8.35;3.00;;;;;;;;;;4970909;28;20081;-65
2023/03/18 00:24:44;;;;;;;8.93;3.13;;;;;;;;;;4970592;28;20081;-69
2023/03/18 00:27:09;;;;;;;11.60;3.10;;;;;;;;;;4970591;28;20375;-68
2023/03/18 00:29:34;;;;;;;7.15;2.72;;;;;;;;;;4970883;28;20042;-67
2023/03/18 00:31:59;;;;;;;9.40;2.97;;;;;;;;;;4971705;28;20065;-66
2023/03/18 00:34:25;;;;;;;6.80;2.60;;;;;;;;;;4970345;28;20094;-66
2023/03/18 00:36:55;;;;;;;6.78;2.65;;;;;;;;;;4972232;28;20636;-66
2023/03/18 00:39:25;;;;;;;8.38;3.00;;;;;;;;;;4971372;28;20475;-66
2023/03/18 00:41:51;;;;;;;8.57;2.80;;;;;;;;;;4970897;28;20058;-66
2023/03/18 00:44:16;;;;;;;9.25;3.25;;;;;;;;;;4970553;28;20018;-69
2023/03/18 00:46:42;;;;;;;7.75;2.70;;;;;;;;;;4971822;28;20375;-66
2023/03/18 00:49:07;;;;;;;10.98;3.10;;;;;;;;;;4970883;28;20027;-67
2023/03/18 00:51:33;;;;;;;9.63;3.20;;;;;;;;;;4973002;28;20015;-66
2023/03/18 00:54:00;;;;;;;7.60;2.95;;;;;;;;;;4967469;28;20546;-66
2023/03/18 00:56:27;;;;;;;7.47;3.33;;;;;;;;;;4972174;28;20022;-66
2023/03/18 00:58:52;;;;;;;10.85;3.20;;;;;;;;;;4972193;28;20050;-65
2023/03/18 01:01:18;;;;;;;7.93;2.90;;;;;;;;;;4971587;28;20062;-65
2023/03/18 01:03:44;;;;;;;7.75;2.95;;;;;;;;;;4972806;28;20046;-67
2023/03/18 01:06:11;;;;;;;8.60;3.00;;;;;;;;;;4972442;28;20483;-66
2023/03/18 01:08:36;;;;;;;8.35;3.20;;;;;;;;;;4969900;28;20505;-66
2023/03/18 01:11:02;;;;;;;8.50;2.95;;;;;;;;;;4972996;28;20026;-65
2023/03/18 01:13:27;;;;;;;7.15;2.97;;;;;;;;;;4971539;28;20419;-67
2023/03/18 01:15:53;;;;;;;9.82;2.88;;;;;;;;;;4971274;28;20019;-66
2023/03/18 01:18:18;;;;;;;8.52;3.05;;;;;;;;;;4972108;28;20102;-66
2023/03/18 01:20:44;;;;;;;7.32;2.90;;;;;;;;;;4973615;28;20026;-66
2023/03/18 01:23:10;;;;;;;9.18;3.25;;;;;;;;;;4973779;28;20083;-66
2023/03/18 01:25:36;;;;;;;8.98;2.92;;;;;;;;;;4970314;28;20026;-66
2023/03/18 01:28:01;;;;;;;7.80;2.53;;;;;;;;;;4972125;28;20034;-68
2023/03/18 01:30:27;;;;;;;7.33;3.20;;;;;;;;;;4972230;28;20382;-65
2023/03/18 01:32:53;;;;;;;15.98;4.03;;;;;;;;;;4968825;28;20039;-66
2023/03/18 01:35:19;;;;;;;7.68;2.83;;;;;;;;;;4968279;28;20042;-64
2023/03/18 01:37:45;;;;;;;10.60;3.13;;;;;;;;;;4970125;28;20046;-66
2023/03/18 01:40:12;;;;;;;8.15;3.03;;;;;;;;;;4971576;28;20436;-66
2023/03/18 01:42:37;;;;;;;9.32;2.70;;;;;;;;;;4971758;28;20033;-65
2023/03/18 01:45:10;;;;;;;7.43;2.72;;;;;;;;;;4970768;28;20027;-66
2023/03/18 01:47:35;;;;;;;11.60;3.17;;;;;;;;;;4969671;28;20522;-64
2023/03/18 01:50:01;;;;;;;8.93;2.95;;;;;;;;;;4969864;28;20023;-66
2023/03/18 01:52:28;;;;;;;8.88;2.95;;;;;;;;;;4968980;28;20050;-65
2023/03/18 01:54:58;;;;;;;8.13;2.90;;;;;;;;;;4969196;28;20105;-65
2023/03/18 01:57:23;;;;;;;9.32;3.00;;;;;;;;;;4970525;28;20093;-66
2023/03/18 01:59:50;;;;;;;8.38;3.20;;;;;;;;;;4970113;28;20023;-66
2023/03/18 02:02:16;;;;;;;7.65;2.80;;;;;;;;;;4968697;28;20587;-66
2023/03/18 02:04:47;;;;;;;9.88;2.92;;;;;;;;;;4969660;28;20031;-64
2023/03/18 02:07:19;;;;;;;7.88;2.83;;;;;;;;;;4965960;28;20190;-67
2023/03/18 02:09:44;;;;;;;;;;;;;;;;;;4967595;28;20019;-63
2023/03/18 02:12:11;;;;;;;9.07;3.33;;;;;;;;;;4965841;28;19918;-66
2023/03/18 02:14:37;;;;;;;;;;;;;;;;;;4969193;28;20035;-65
2023/03/18 02:17:07;;;;;;;7.05;2.80;;;;;;;;;;4967086;28;19936;-66
2023/03/18 02:19:51;;;;;;;9.93;3.20;;;;;;;;;;4969783;28;20027;-66
2023/03/18 02:22:22;;;;;;;7.50;2.80;;;;;;;;;;4966374;28;20027;-65
2023/03/18 02:25:11;;;;;;;10.05;3.05;;;;;;;;;;4966069;28;20371;-65
2023/03/18 02:27:39;;;;;;;7.57;2.80;;;;;;;;;;4967418;28;20019;-68
2023/03/18 02:30:09;;;;;;;8.00;2.92;;;;;;;;;;4970086;28;20023;-66
2023/03/18 02:32:34;;;;;;;7.88;2.90;;;;;;;;;;4967622;28;20027;-67
2023/03/18 02:35:01;;;;;;;8.13;3.00;;;;;;;;;;4967049;28;20019;-67
2023/03/18 02:37:27;;;;;;;7.57;2.72;;;;;;;;;;4966193;28;20395;-68
2023/03/18 02:39:52;;;;;;;10.65;3.10;;;;;;;;;;4965489;28;20030;-66
2023/03/18 02:42:27;;;;;;;8.30;2.80;;;;;;;;;;4969614;28;20023;-66
2023/03/18 02:44:52;;;;;;;7.95;3.00;;;;;;;;;;4968614;28;20054;-65
2023/03/18 02:47:19;;;;;;;8.20;3.10;;;;;;;;;;4969953;28;20391;-65
2023/03/18 02:49:44;;;;;;;;;;;;;;;;;;4968901;28;20025;-64
2023/03/18 02:52:10;;;;;;;7.50;2.97;;;;;;;;;;4967773;28;19910;-67
2023/03/18 02:54:35;;;;;;;7.03;3.10;;;;;;;;;;4969158;28;20529;-67
2023/03/18 02:57:01;;;;;;;6.93;2.83;;;;;;;;;;4968275;28;20031;-65
2023/03/18 02:59:27;;;;;;;9.30;2.83;;;;;;;;;;4969013;28;20037;-67
2023/03/18 03:01:53;;;;;;;7.85;3.33;;;;;;;;;;4969999;28;20133;-64
2023/03/18 03:04:20;;;;;;;7.97;2.97;;;;;;;;;;4970509;28;20027;-65
2023/03/18 03:06:45;;;;;;;8.45;2.97;;;;;;;;;;4969853;28;20034;-65
2023/03/18 03:09:12;;;;;;;7.85;2.83;;;;;;;;;;4970157;28;20035;-66
2023/03/18 03:11:38;;;;;;;9.18;2.60;;;;;;;;;;4969362;28;20023;-66
2023/03/18 03:14:03;;;;;;;9.10;3.00;;;;;;;;;;4970180;28;20077;-65
2023/03/18 03:16:28;;;;;;;9.13;2.80;;;;;;;;;;4968198;28;20019;-66
2023/03/18 03:18:54;;;;;;;12.10;3.10;;;;;;;;;;4969567;28;20045;-68
2023/03/18 03:21:19;;;;;;;7.55;2.70;;;;;;;;;;4968280;28;20539;-69
2023/03/18 03:23:45;;;;;;;6.80;2.90;;;;;;;;;;4970342;28;20050;-66
2023/03/18 03:26:10;;;;;;;9.40;3.20;;;;;;;;;;4966996;28;20118;-65
2023/03/18 03:28:36;;;;;;;7.13;3.08;;;;;;;;;;4969481;28;20110;-67
2023/03/18 03:31:01;;;;;;;9.48;2.90;;;;;;;;;;4970688;28;20058;-62
2023/03/18 03:33:26;;;;;;;6.90;2.88;;;;;;;;;;4967339;28;20027;-64
2023/03/18 03:35:52;;;;;;;6.50;2.80;;;;;;;;;;4968480;28;20078;-66
2023/03/18 03:38:17;;;;;;;10.15;2.80;;;;;;;;;;4970047;28;20886;-66
2023/03/18 03:40:43;;;;;;;9.20;2.83;;;;;;;;;;4972081;28;20105;-66
2023/03/18 03:43:10;;;;;;;11.20;3.30;;;;;;;;;;4970473;28;20529;-67
2023/03/18 03:45:35;;;;;;;8.70;3.20;;;;;;;;;;4969844;28;20045;-63
2023/03/18 03:48:01;;;;;;;8.23;2.92;;;;;;;;;;4986668;28;20071;-64
2023/03/18 03:50:26;;;;;;;8.27;3.07;;;;;;;;;;4969783;28;20038;-66
2023/03/18 03:52:51;;;;;;;9.17;3.23;;;;;;;;;;4969645;28;20454;-65
2023/03/18 03:55:18;;;;;;;7.03;2.92;;;;;;;;;;4969289;28;20121;-62
2023/03/18 03:57:43;;;;;;;7.70;2.83;;;;;;;;;;4968953;28;20157;-67
2023/03/18 04:00:13;;;;;;;8.57;3.00;;;;;;;;;;4969714;28;20109;-64
2023/03/18 04:02:38;;;;;;;7.85;3.17;;;;;;;;;;4971184;28;20459;-65
2023/03/18 04:05:04;;;;;;;8.50;2.97;;;;;;;;;;4971230;28;20030;-67
2023/03/18 04:07:29;;;;;;;7.72;3.38;;;;;;;;;;4969427;28;20585;-65
2023/03/18 04:09:54;;;;;;;7.32;2.67;;;;;;;;;;4974658;28;20027;-65
2023/03/18 04:12:20;;;;;;;8.93;3.45;;;;;;;;;;4975563;28;20479;-64
2023/03/18 04:14:46;;;;;;;9.70;3.10;;;;;;;;;;4975152;28;20058;-65
2023/03/18 04:17:11;;;;;;;6.95;2.90;;;;;;;;;;4973378;28;20078;-65
2023/03/18 04:19:36;;;;;;;8.03;3.10;;;;;;;;;;4971386;28;20038;-66
2023/03/18 04:22:02;;;;;;;7.05;2.95;;;;;;;;;;4969715;28;20026;-65
2023/03/18 04:24:27;;;;;;;8.52;2.90;;;;;;;;;;4970513;28;20529;-64
2023/03/18 04:26:52;;;;;;;10.07;3.33;;;;;;;;;;4972570;28;20510;-66
2023/03/18 04:29:18;;;;;;;8.40;3.00;;;;;;;;;;4970338;28;20414;-66
2023/03/18 04:31:43;;;;;;;8.37;3.10;;;;;;;;;;4972147;28;20398;-65
2023/03/18 04:34:08;;;;;;;7.95;2.95;;;;;;;;;;4972961;28;20109;-64
2023/03/18 04:36:34;;;;;;;7.85;3.17;;;;;;;;;;4972428;28;20019;-65
2023/03/18 04:38:59;;;;;;;9.53;3.00;;;;;;;;;;4975451;28;20018;-65
2023/03/18 04:41:24;;;;;;;10.37;3.07;;;;;;;;;;4970556;28;20026;-66
2023/03/18 04:43:50;;;;;;;8.15;2.95;;;;;;;;;;4971199;28;20438;-65
2023/03/18 04:46:15;;;;;;;8.47;3.13;;;;;;;;;;4971546;28;20034;-67
2023/03/18 04:48:41;;;;;;;9.18;2.97;;;;;;;;;;4971822;28;20030;-66
2023/03/18 04:51:08;;;;;;;8.48;2.90;;;;;;;;;;4972063;28;20031;-64
2023/03/18 04:53:33;;;;;;;9.13;3.13;;;;;;;;;;4970442;28;20391;-66
2023/03/18 04:55:59;;;;;;;9.63;3.17;;;;;;;;;;4967888;28;20034;-63
2023/03/18 04:58:25;;;;;;;10.35;3.30;;;;;;;;;;4970676;28;20505;-63
2023/03/18 05:00:50;;;;;;;7.47;3.20;;;;;;;;;;4970765;28;20105;-61
2023/03/18 05:03:15;;;;;;;7.97;3.00;;;;;;;;;;4971753;28;20615;-65
2023/03/18 05:05:40;;;;;;;9.90;3.35;;;;;;;;;;4971387;28;20019;-66
2023/03/18 05:08:06;;;;;;;7.05;2.75;;;;;;;;;;4971996;28;20055;-67
2023/03/18 05:10:31;;;;;;;9.80;3.17;;;;;;;;;;4971482;28;20026;-68
2023/03/18 05:12:57;;;;;;;8.73;3.20;;;;;;;;;;4970047;28;20019;-63
2023/03/18 05:15:22;;;;;;;7.60;2.97;;;;;;;;;;4963898;28;20487;-67
2023/03/18 05:17:47;;;;;;;9.57;3.10;;;;;;;;;;4968516;28;20041;-66
2023/03/18 05:20:13;;;;;;;8.07;3.00;;;;;;;;;;4972303;28;20019;-67
2023/03/18 05:22:38;;;;;;;9.27;3.08;;;;;;;;;;4970842;28;20027;-65
2023/03/18 05:25:04;;;;;;;9.70;3.17;;;;;;;;;;4971038;28;20027;-66
2023/03/18 05:27:30;;;;;;;9.65;3.20;;;;;;;;;;4972276;28;20050;-67
2023/03/18 05:29:55;;;;;;;8.38;3.25;;;;;;;;;;4969499;28;20053;-65
2023/03/18 05:32:20;;;;;;;7.90;3.10;;;;;;;;;;4970957;28;20471;-64
2023/03/18 05:34:46;;;;;;;9.43;3.43;;;;;;;;;;4970450;28;20549;-66
2023/03/18 05:37:12;;;;;;;8.57;2.92;;;;;;;;;;4971519;28;20035;-65
2023/03/18 05:39:37;;;;;;;7.75;2.97;;;;;;;;;;4972758;28;20026;-67
2023/03/18 05:42:03;;;;;;;13.23;3.72;;;;;;;;;;4972653;28;20394;-67
2023/03/18 05:44:29;;;;;;;8.45;3.08;;;;;;;;;;4971789;28;20022;-63
2023/03/18 05:46:54;;;;;;;8.15;3.00;;;;;;;;;;4969744;28;20390;-66
2023/03/18 05:49:19;;;;;;;8.75;3.00;;;;;;;;;;4971451;28;20014;-67
2023/03/18 05:51:45;;;;;;;7.70;3.00;;;;;;;;;;4970445;28;20023;-66
2023/03/18 05:54:10;;;;;;;7.47;2.87;;;;;;;;;;4972003;28;20029;-66
2023/03/18 05:56:36;;;;;;;9.15;3.08;;;;;;;;;;4972341;28;20441;-66
2023/03/18 05:59:02;;;;;;;10.27;3.20;;;;;;;;;;4970811;28;20010;-65
2023/03/18 06:01:28;;;;;;;9.52;3.28;;;;;;;;;;4970712;28;20031;-64
2023/03/18 06:03:54;;;;;;;9.30;3.05;;;;;;;;;;4968536;28;20018;-65
2023/03/18 06:06:20;;;;;;;8.63;3.03;;;;;;;;;;4967950;28;20026;-66
2023/03/18 06:08:45;;;;;;;8.43;3.10;;;;;;;;;;4969420;28;20873;-67
2023/03/18 06:11:11;;;;;;;8.30;3.17;;;;;;;;;;4978934;28;20065;-67
2023/03/18 06:13:36;;;;;;;9.55;3.30;;;;;;;;;;4975665;28;20085;-65
2023/03/18 06:16:02;;;;;;;7.20;2.83;;;;;;;;;;4973927;28;20499;-67
2023/03/18 06:18:27;;;;;;;9.07;3.22;;;;;;;;;;4976123;28;20442;-64
2023/03/18 06:20:53;;;;;;;7.40;2.93;;;;;;;;;;4978830;28;20073;-66
2023/03/18 06:23:18;;;;;;;8.38;3.00;;;;;;;;;;4976850;28;20451;-64
2023/03/18 06:25:45;;;;;;;9.70;2.80;;;;;;;;;;4969805;28;20035;-63
2023/03/18 06:28:11;;;;;;;7.25;3.20;;;;;;;;;;4969018;28;20026;-67
2023/03/18 06:30:36;;;;;;;8.52;3.33;;;;;;;;;;4970146;28;20019;-67
2023/03/18 06:33:02;;;;;;;9.05;3.20;;;;;;;;;;4970222;28;20105;-64
2023/03/18 06:35:27;;;;;;;8.80;3.10;;;;;;;;;;4969831;28;20026;-68
2023/03/18 06:37:53;;;;;;;7.88;3.33;;;;;;;;;;4966939;28;20018;-65
2023/03/18 06:40:18;;;;;;;8.07;3.05;;;;;;;;;;4970167;28;20111;-68
2023/03/18 06:42:44;;;;;;;9.80;3.20;;;;;;;;;;4971734;28;20102;-67
2023/03/18 06:45:10;;;;;;;7.55;3.10;;;;;;;;;;4970589;28;20015;-66
2023/03/18 06:47:35;;;;;;;9.30;2.90;;;;;;;;;;4969305;28;20019;-66
2023/03/18 06:50:00;;;;;;;10.37;3.70;;;;;;;;;;4968701;28;20422;-63
2023/03/18 06:52:26;;;;;;;9.23;2.95;;;;;;;;;;4971180;28;20065;-65
2023/03/18 06:54:52;;;;;;;9.88;3.20;;;;;;;;;;4968085;28;20026;-66
2023/03/18 06:57:17;;;;;;;8.65;3.00;;;;;;;;;;4969195;28;20626;-66
2023/03/18 06:59:42;;;;;;;8.47;3.30;;;;;;;;;;4968851;28;20035;-64
2023/03/18 07:02:08;;;;;;;8.70;2.83;;;;;;;;;;4967654;28;20470;-65
2023/03/18 07:04:34;;;;;;;8.27;3.25;;;;;;;;;;4968498;28;20078;-65
2023/03/18 07:06:59;;;;;;;8.73;3.35;;;;;;;;;;4969586;28;20027;-66
2023/03/18 07:09:25;;;;;;;7.70;2.83;;;;;;;;;;4976156;28;20022;-63
2023/03/18 07:11:50;;;;;;;10.55;3.28;;;;;;;;;;4975217;28;20026;-64
2023/03/18 07:14:15;;;;;;;6.97;2.95;;;;;;;;;;4978101;28;20659;-66
2023/03/18 07:16:40;;;;;;;7.73;2.90;;;;;;;;;;4971733;28;20019;-66
2023/03/18 07:19:06;;;;;;;8.60;3.13;;;;;;;;;;4975838;28;20101;-65
2023/03/18 07:21:31;;;;;;;7.57;3.20;;;;;;;;;;4979828;28;20402;-64
2023/03/18 07:23:57;;;;;;;10.13;3.70;;;;;;;;;;4972752;28;20834;-66
2023/03/18 07:26:22;;;;;;;10.38;3.30;;;;;;;;;;4968587;28;20117;-65
2023/03/18 07:28:48;;;;;;;9.13;2.83;;;;;;;;;;4964728;28;20474;-66
2023/03/18 07:31:13;;;;;;;7.93;3.30;;;;;;;;;;4966993;28;20026;-66
2023/03/18 07:33:38;;;;;;;8.77;3.20;;;;;;;;;;4974100;28;20549;-64
2023/03/18 07:36:03;;;;;;;8.93;3.33;;;;;;;;;;4972929;28;20069;-65
2023/03/18 07:38:29;;;;;;;11.10;3.30;;;;;;;;;;4971487;28;20015;-62
2023/03/18 07:40:55;;;;;;;8.63;3.25;;;;;;;;;;4969781;28;20479;-66
2023/03/18 07:43:20;;;;;;;8.93;3.17;;;;;;;;;;4967573;28;20011;-66
2023/03/18 07:45:45;;;;;;;9.00;3.67;;;;;;;;;;4969916;28;20023;-66
2023/03/18 07:48:11;;;;;;;7.93;3.13;;;;;;;;;;4967610;28;20049;-66
2023/03/18 07:50:36;;;;;;;11.27;3.17;;;;;;;;;;4967762;28;20537;-64
2023/03/18 07:53:02;;;;;;;10.37;3.40;;;;;;;;;;4967814;28;20471;-66
2023/03/18 07:55:27;;;;;;;8.68;3.13;;;;;;;;;;4970874;28;20022;-65
2023/03/18 07:57:52;;;;;;;9.47;3.37;;;;;;;;;;4970389;28;20019;-67
2023/03/18 08:00:18;;;;;;;11.53;3.57;;;;;;;;;;4970236;28;20031;-66
2023/03/18 08:02:43;;;;;;;8.38;3.03;;;;;;;;;;4978004;28;20469;-66
2023/03/18 08:05:08;;;;;;;9.93;3.37;;;;;;;;;;4977678;28;20038;-65
2023/03/18 08:07:34;;;;;;;8.98;3.55;;;;;;;;;;4967271;28;20085;-67
2023/03/18 08:10:00;;;;;;;9.98;3.63;;;;;;;;;;4972880;28;20030;-66
2023/03/18 08:12:25;;;;;;;8.40;3.20;;;;;;;;;;4971856;28;20030;-66
2023/03/18 08:14:51;;;;;;;9.70;3.43;;;;;;;;;;4972947;28;20023;-66
2023/03/18 08:17:16;;;;;;;8.38;3.70;;;;;;;;;;4960810;28;20066;-66
2023/03/18 08:19:41;;;;;;;10.25;3.70;;;;;;;;;;4972466;28;20023;-66
2023/03/18 08:22:07;;;;;;;11.67;4.37;;;;;;;;;;4971973;28;20030;-66
2023/03/18 08:24:32;;;;;;;7.97;3.27;;;;;;;;;;4975132;28;20457;-66
2023/03/18 08:26:57;;;;;;;8.75;3.30;;;;;;;;;;4971099;28;20387;-66
2023/03/18 08:29:23;;;;;;;9.07;3.60;;;;;;;;;;4975505;28;20038;-66
2023/03/18 08:31:48;;;;;;;9.20;3.50;;;;;;;;;;4971167;28;20040;-65
2023/03/18 08:34:14;;;;;;;10.73;3.78;;;;;;;;;;4966870;28;20901;-66
2023/03/18 08:36:39;;;;;;;9.80;3.60;;;;;;;;;;4977597;28;20474;-66
2023/03/18 08:39:05;;;;;;;8.43;3.63;;;;;;;;;;4973010;28;20106;-65
2023/03/18 08:41:31;;;;;;;11.60;3.33;;;;;;;;;;4970656;28;20050;-66
2023/03/18 08:43:57;;;;;;;11.73;4.20;;;;;;;;;;4969185;28;20049;-67
2023/03/18 08:46:23;;;;;;;11.07;4.60;;;;;;;;;;4970514;28;20082;-65
2023/03/18 08:48:48;;;;;;;11.63;4.83;;;;;;;;;;4969609;28;20034;-67
2023/03/18 08:51:13;;;;;;;10.63;3.92;;;;;;;;;;4970183;28;20027;-67
2023/03/18 08:53:39;;;;;;;8.70;3.80;;;;;;;;;;4976080;28;20090;-65
2023/03/18 08:56:06;;;;;;;11.95;4.40;;;;;;;;;;4969927;28;20403;-66
2023/03/18 08:58:32;;;;;;;9.18;3.67;;;;;;;;;;4965092;28;20023;-65
2023/03/18 09:00:58;;;;;;;10.60;4.00;;;;;;;;;;4969133;28;20440;-67
2023/03/18 09:03:23;;;;;;;9.52;3.83;;;;;;;;;;4970643;28;20053;-65
2023/03/18 09:05:49;;;;;;;12.07;3.92;;;;;;;;;;4969986;28;20022;-63
2023/03/18 09:08:14;;;;;;;8.88;3.58;;;;;;;;;;4967865;28;20054;-66
2023/03/18 09:10:40;;;;;;;10.30;3.53;;;;;;;;;;4968114;28;20434;-64
2023/03/18 09:13:07;;;;;;;11.73;4.63;;;;;;;;;;4966477;28;20041;-66
2023/03/18 09:15:32;;;;;;;;;;;;;;;;;;4969095;28;20077;-67
2023/03/18 09:17:57;;;;;;;8.98;3.88;;;;;;;;;;4972002;28;19913;-66
2023/03/18 09:20:22;;;;;;;11.10;3.80;;;;;;;;;;4967045;28;20011;-65
2023/03/18 09:22:48;;;;;;;7.97;3.17;;;;;;;;;;4955999;28;20482;-68
2023/03/18 09:25:13;;;;;;;9.20;3.33;;;;;;;;;;4960844;28;20474;-65
2023/03/18 09:27:38;;;;;;;8.07;3.50;;;;;;;;;;4968153;28;20053;-65
2023/03/18 09:30:04;;;;;;;8.60;3.80;;;;;;;;;;4975893;28;20101;-66
2023/03/18 09:32:29;;;;;;;10.07;4.00;;;;;;;;;;4972222;28;20037;-65
2023/03/18 09:34:54;;;;;;;8.63;4.00;;;;;;;;;;4979762;28;20027;-64
2023/03/18 09:37:20;;;;;;;8.90;3.50;;;;;;;;;;4972604;28;20023;-64
2023/03/18 09:39:50;;;;;;;9.32;3.60;;;;;;;;;;4973104;28;20045;-66
2023/03/18 09:42:28;;;;;;;11.18;3.92;;;;;;;;;;4970552;28;20030;-66
2023/03/18 09:44:55;;;;;;;9.57;3.60;;;;;;;;;;4970421;28;20438;-66
2023/03/18 09:47:32;;;;;;;8.68;3.60;;;;;;;;;;4972546;28;20328;-65
2023/03/18 09:49:58;;;;;;;10.55;4.03;;;;;;;;;;4976312;28;20025;-66
2023/03/18 09:52:23;;;;;;;8.70;3.67;;;;;;;;;;4974420;28;20465;-64
2023/03/18 09:55:04;;;;;;;10.40;4.13;;;;;;;;;;4973931;28;20030;-64
2023/03/18 09:57:35;;;;;;;10.38;4.18;;;;;;;;;;4982845;28;20015;-66
2023/03/18 10:00:00;;;;;;;10.18;3.80;;;;;;;;;;4977852;28;20054;-65
2023/03/18 10:02:44;;;;;;;8.80;3.50;;;;;;;;;;4975874;28;20038;-66
2023/03/18 10:05:13;;;;;;;9.13;3.90;;;;;;;;;;4972698;28;20489;-64
2023/03/18 10:07:41;;;;;;;10.85;3.63;;;;;;;;;;4975391;28;20508;-65
2023/03/18 10:10:10;;;;;;;9.70;4.10;;;;;;;;;;4973378;28;20040;-66
2023/03/18 10:12:37;;;;;;;8.40;3.83;;;;;;;;;;4973206;28;20102;-67
2023/03/18 10:15:03;;;;;;;8.65;3.75;;;;;;;;;;4971466;28;20031;-64
2023/03/18 10:17:34;;;;;;;9.23;3.85;;;;;;;;;;4966725;28;20033;-66
2023/03/18 10:20:03;;;;;;;10.55;3.70;;;;;;;;;;4968873;28;20063;-67
2023/03/18 10:22:47;;;;;;;7.82;3.45;;;;;;;;;;4971833;28;20402;-66
2023/03/18 10:25:18;;;;;;;8.32;3.80;;;;;;;;;;4972197;28;20435;-67
2023/03/18 10:28:02;;;;;;;10.30;3.80;;;;;;;;;;4976932;28;20027;-64
2023/03/18 10:30:33;;;;;;;10.95;4.20;;;;;;;;;;4961258;28;20042;-66
2023/03/18 10:33:12;;;;;;;8.98;3.65;;;;;;;;;;4966267;28;20443;-68
2023/03/18 10:35:40;;;;;;;11.30;3.83;;;;;;;;;;4972040;28;20513;-67
2023/03/18 10:38:16;;;;;;;9.77;4.10;;;;;;;;;;4973239;28;21684;-66
2023/03/18 10:40:41;;;;;;;9.13;3.88;;;;;;;;;;4972059;28;20023;-66
2023/03/18 10:43:18;;;;;;;9.67;3.67;;;;;;;;;;4969663;28;20503;-66
2023/03/18 10:45:44;;;;;;;12.23;4.18;;;;;;;;;;4967123;28;20014;-65
2023/03/18 10:48:14;;;;;;;9.48;3.70;;;;;;;;;;4970686;28;20097;-66
2023/03/18 10:51:07;;;;;;;10.95;4.07;;;;;;;;;;4969656;28;20081;-64
2023/03/18 10:53:38;;;;;;;8.90;3.70;;;;;;;;;;4947846;28;20030;-65
2023/03/18 10:56:07;;;;;;;8.75;3.58;;;;;;;;;;4963121;28;20029;-66
2023/03/18 10:58:32;;;;;;;9.43;3.83;;;;;;;;;;4967939;28;20402;-66
2023/03/18 11:00:58;;;;;;;9.13;3.70;;;;;;;;;;4967294;28;20042;-65
2023/03/18 11:03:26;;;;;;;9.27;3.92;;;;;;;;;;4968837;28;20022;-67
2023/03/18 11:05:52;;;;;;;8.50;4.20;;;;;;;;;;4969631;28;20029;-67
2023/03/18 11:08:27;;;;;;;8.18;3.60;;;;;;;;;;4969074;28;20038;-67
2023/03/18 11:10:53;;;;;;;9.52;3.47;;;;;;;;;;4964604;28;20027;-67
2023/03/18 11:13:19;;;;;;;8.10;3.50;;;;;;;;;;4963956;28;20092;-66
2023/03/18 11:15:51;;;;;;;8.50;3.47;;;;;;;;;;4966676;28;20054;-66
2023/03/18 11:18:20;;;;;;;10.88;3.72;;;;;;;;;;4970050;28;20023;-67
2023/03/18 11:20:48;;;;;;;8.40;3.85;;;;;;;;;;4965957;28;20046;-65
2023/03/18 11:23:16;;;;;;;10.23;3.88;;;;;;;;;;4974273;28;20018;-67
2023/03/18 11:25:44;;;;;;;7.65;3.40;;;;;;;;;;4967889;28;20053;-67
2023/03/18 11:28:17;;;;;;;9.40;4.00;;;;;;;;;;4969726;28;20033;-66
2023/03/18 11:30:45;;;;;;;9.38;3.95;;;;;;;;;;4971187;28;20623;-66
2023/03/18 11:33:11;;;;;;;14.20;4.43;;;;;;;;;;4964497;28;20069;-65
2023/03/18 11:35:42;;;;;;;11.10;4.38;;;;;;;;;;4970236;28;20071;-66
2023/03/18 11:38:14;;;;;;;10.32;3.90;;;;;;;;;;4972948;28;20034;-67
2023/03/18 11:40:39;;;;;;;9.43;3.90;;;;;;;;;;4971130;28;20435;-67
2023/03/18 11:43:13;;;;;;;9.95;4.40;;;;;;;;;;4974529;28;20023;-66
2023/03/18 11:45:42;;;;;;;9.30;3.80;;;;;;;;;;4971094;28;20445;-66
2023/03/18 11:48:12;;;;;;;8.25;4.10;;;;;;;;;;4969752;28;20033;-67
2023/03/18 11:50:41;;;;;;;8.75;3.78;;;;;;;;;;4970202;28;20534;-66
2023/03/18 11:53:11;;;;;;;9.95;4.03;;;;;;;;;;4968036;28;20445;-66
2023/03/18 11:55:42;;;;;;;8.65;4.10;;;;;;;;;;4969555;28;20019;-65
2023/03/18 11:58:19;;;;;;;9.15;3.90;;;;;;;;;;4970785;28;20031;-65
2023/03/18 12:01:04;;;;;;;11.85;4.30;;;;;;;;;;4969854;28;20698;-67
2023/03/18 12:03:48;;;;;;;11.32;4.18;;;;;;;;;;4970836;28;20034;-65
2023/03/18 12:06:18;;;;;;;10.65;3.80;;;;;;;;;;4972887;28;20019;-66
2023/03/18 12:08:53;;;;;;;11.23;4.55;;;;;;;;;;4968557;28;20022;-65
2023/03/18 12:11:24;;;;;;;10.55;4.20;;;;;;;;;;4969616;28;20022;-68
2023/03/18 12:14:14;;;;;;;10.32;4.20;;;;;;;;;;4965908;28;20050;-66
2023/03/18 12:16:49;;;;;;;10.30;4.68;;;;;;;;;;4984901;28;20098;-66
2023/03/18 12:19:33;;;;;;;11.45;5.13;;;;;;;;;;4974346;28;20023;-65
2023/03/18 12:21:58;;;;;;;9.40;4.70;;;;;;;;;;4970985;28;20085;-67
2023/03/18 12:24:44;;;;;;;12.20;5.03;;;;;;;;;;4973319;28;20101;-66
2023/03/18 12:27:14;;;;;;;11.52;4.88;;;;;;;;;;4965719;28;20067;-64
2023/03/18 12:29:47;;;;;;;11.80;5.28;;;;;;;;;;4972898;28;20372;-65
2023/03/18 12:32:12;;;;;;;;;;;;;;;;;;4972545;28;20049;-65
2023/03/18 12:34:58;;;;;;;10.38;5.00;;;;;;;;;;4973492;28;19976;-66
2023/03/18 12:37:30;;;;;;;12.23;4.82;;;;;;;;;;4969823;28;20151;-67
2023/03/18 12:40:14;;;;;;;10.73;4.75;;;;;;;;;;4973207;28;20023;-63
2023/03/18 12:42:57;;;;;;;13.15;4.93;;;;;;;;;;4972736;28;20030;-64
2023/03/18 12:45:25;;;;;;;10.80;4.60;;;;;;;;;;4967954;28;20101;-66
2023/03/18 12:47:58;;;;;;;9.70;4.43;;;;;;;;;;4971526;28;20030;-66
2023/03/18 12:50:31;;;;;;;10.10;4.57;;;;;;;;;;4972913;28;20054;-65
2023/03/18 12:53:01;;;;;;;12.57;5.30;;;;;;;;;;4984643;28;20113;-65
2023/03/18 12:55:38;;;;;;;13.27;5.05;;;;;;;;;;4981551;28;20057;-65
2023/03/18 12:58:10;;;;;;;13.00;5.38;;;;;;;;;;4985931;28;20027;-64
2023/03/18 13:00:38;;;;;;;12.60;5.43;;;;;;;;;;4981242;28;20022;-65
2023/03/18 13:03:22;;;;;;;11.15;4.97;;;;;;;;;;4972259;28;20026;-66
2023/03/18 13:05:53;;;;;;;11.18;5.00;;;;;;;;;;4976848;28;20149;-67
2023/03/18 13:08:24;;;;;;;15.43;6.47;;;;;;;;;;4972246;28;20031;-65
2023/03/18 13:10:56;;;;;;;16.67;7.07;;;;;;;;;;4972547;28;20034;-66
2023/03/18 13:13:21;;;;;;;18.20;7.50;;;;;;;;;;4973922;28;20486;-68
2023/03/18 13:15:48;;;;;;;12.50;5.60;;;;;;;;;;4974623;28;20027;-63
2023/03/18 13:18:21;;;;;;;12.38;5.68;;;;;;;;;;4968218;28;20597;-66
2023/03/18 13:20:48;;;;;;;10.48;4.97;;;;;;;;;;4972290;28;20058;-66
2023/03/18 13:23:15;;;;;;;13.93;5.63;;;;;;;;;;4971772;28;20030;-67
2023/03/18 13:25:50;;;;;;;12.15;5.30;;;;;;;;;;4968236;28;20042;-65
2023/03/18 13:28:24;;;;;;;11.52;4.88;;;;;;;;;;4966928;28;20529;-65
2023/03/18 13:30:54;;;;;;;12.32;5.18;;;;;;;;;;4969095;28;20030;-66
2023/03/18 13:33:35;;;;;;;13.05;5.45;;;;;;;;;;4961631;28;20981;-66
2023/03/18 13:36:13;;;;;;;12.45;5.25;;;;;;;;;;4969545;28;20533;-64
2023/03/18 13:38:52;;;;;;;11.85;5.20;;;;;;;;;;4971120;28;20023;-66
2023/03/18 13:41:37;;;;;;;12.15;5.70;;;;;;;;;;4985646;28;20035;-67
2023/03/18 13:44:11;;;;;;;12.32;5.03;;;;;;;;;;4971461;28;20027;-66
2023/03/18 13:46:37;;;;;;;13.82;5.40;;;;;;;;;;4968936;28;20102;-68
2023/03/18 13:49:02;;;;;;;13.70;5.30;;;;;;;;;;4973136;28;20101;-66
2023/03/18 13:51:28;;;;;;;11.90;5.30;;;;;;;;;;4972039;28;20407;-66
2023/03/18 13:53:55;;;;;;;12.63;5.07;;;;;;;;;;4964178;28;20419;-66
2023/03/18 13:56:26;;;;;;;13.43;5.00;;;;;;;;;;4974961;28;20039;-65
2023/03/18 13:58:52;;;;;;;13.48;5.10;;;;;;;;;;4973414;28;20022;-66
2023/03/18 14:01:18;;;;;;;;;;;;;;;;;;4973022;28;20417;-66
2023/03/18 14:03:43;;;;;;;11.65;4.78;;;;;;;;;;4977933;28;20025;-65
2023/03/18 14:06:08;;;;;;;17.93;5.70;;;;;;;;;;4968730;28;20028;-65
2023/03/18 14:08:42;;;;;;;12.68;5.75;;;;;;;;;;4968026;28;20065;-67
2023/03/18 14:11:13;;;;;;;13.10;5.80;;;;;;;;;;4966585;28;20023;-64
2023/03/18 14:13:39;;;;;;;11.88;5.72;;;;;;;;;;4974840;28;20053;-65
2023/03/18 14:16:11;;;;;;;12.48;5.82;;;;;;;;;;4975168;28;20056;-65
2023/03/18 14:18:37;;;;;;;12.25;6.13;;;;;;;;;;4978440;28;20026;-67
2023/03/18 14:21:04;;;;;;;12.75;5.68;;;;;;;;;;4972053;28;20487;-64
2023/03/18 14:23:42;;;;;;;14.95;6.13;;;;;;;;;;4973910;28;20026;-65
2023/03/18 14:26:18;;;;;;;12.13;5.80;;;;;;;;;;4973330;28;20042;-64
2023/03/18 14:28:45;;;;;;;14.25;6.30;;;;;;;;;;4973915;28;20027;-63
2023/03/18 14:31:18;;;;;;;13.23;5.82;;;;;;;;;;4964508;28;20042;-66
2023/03/18 14:34:03;;;;;;;11.18;5.40;;;;;;;;;;4983613;28;20419;-67
2023/03/18 14:36:46;;;;;;;13.07;5.43;;;;;;;;;;4957474;28;20015;-66
2023/03/18 14:39:22;;;;;;;13.20;5.95;;;;;;;;;;4971087;28;20069;-67
2023/03/18 14:41:51;;;;;;;11.57;5.85;;;;;;;;;;4969934;28;20035;-65
2023/03/18 14:44:20;;;;;;;14.13;5.95;;;;;;;;;;4970736;28;20034;-65